createdAt,value
2023-03-24T00:01:23.579Z,3.60
2023-03-24T00:03:51.362Z,3.83
2023-03-24T00:06:18.295Z,3.70
2023-03-24T00:08:47.253Z,3.50
2023-03-24T00:11:14.168Z,4.10
2023-03-24T00:13:40.940Z,4.20
2023-03-24T00:16:09.775Z,3.70
2023-03-24T00:18:36.742Z,4.30
2023-03-24T00:21:04.121Z,3.87
2023-03-24T00:23:31.879Z,3.90
2023-03-24T00:26:05.308Z,3.80
2023-03-24T00:28:32.956Z,4.10
2023-03-24T00:31:01.340Z,4.53
2023-03-24T00:33:32.091Z,3.87
2023-03-24T00:35:59.631Z,4.60
2023-03-24T00:38:26.340Z,4.47
2023-03-24T00:40:52.948Z,3.63
2023-03-24T00:43:19.541Z,4.70
2023-03-24T00:45:46.086Z,4.40
2023-03-24T00:48:17.300Z,4.90
2023-03-24T00:50:51.109Z,3.93
2023-03-24T00:53:18.194Z,4.90
2023-03-24T00:55:47.157Z,4.17
2023-03-24T00:58:22.817Z,4.43
2023-03-24T01:00:51.136Z,4.50
2023-03-24T01:03:21.268Z,4.33
2023-03-24T01:05:47.852Z,4.37
2023-03-24T01:08:19.553Z,4.93
2023-03-24T01:10:52.451Z,4.67
2023-03-24T01:13:24.332Z,4.70
2023-03-24T01:15:51.461Z,4.53
2023-03-24T01:18:18.104Z,4.60
2023-03-24T01:20:46.498Z,5.17
2023-03-24T01:23:16.193Z,5.67
2023-03-24T01:25:44.768Z,5.13
2023-03-24T01:28:16.521Z,4.80
2023-03-24T01:30:43.105Z,4.57
2023-03-24T01:33:09.992Z,4.83
2023-03-24T01:35:36.343Z,3.97
2023-03-24T01:38:10.904Z,4.80
2023-03-24T01:40:39.988Z,3.70
2023-03-24T01:43:09.364Z,4.07
2023-03-24T01:45:38.845Z,4.10
2023-03-24T01:48:07.238Z,4.73
2023-03-24T01:50:33.552Z,4.43
2023-03-24T01:53:00.600Z,4.40
2023-03-24T01:55:27.967Z,4.87
2023-03-24T01:57:58.465Z,4.70
2023-03-24T02:00:25.216Z,4.50
2023-03-24T02:02:57.895Z,3.87
2023-03-24T02:05:32.221Z,4.60
2023-03-24T02:08:07.832Z,4.43
2023-03-24T02:10:35.740Z,4.00
2023-03-24T02:13:03.847Z,4.27
2023-03-24T02:15:31.248Z,4.17
2023-03-24T02:18:20.267Z,4.30
2023-03-24T02:21:14.201Z,4.13
2023-03-24T02:24:17.808Z,4.00
2023-03-24T02:27:04.345Z,4.00
2023-03-24T02:29:40.077Z,4.30
2023-03-24T02:32:20.670Z,4.37
2023-03-24T02:35:17.632Z,4.37
2023-03-24T02:38:05.251Z,5.00
2023-03-24T02:41:01.189Z,4.50
2023-03-24T02:44:04.812Z,4.53
2023-03-24T02:46:55.313Z,4.80
2023-03-24T02:49:29.877Z,5.10
2023-03-24T02:52:17.577Z,4.97
2023-03-24T02:55:08.257Z,5.40
2023-03-24T02:57:43.029Z,5.27
2023-03-24T03:00:46.432Z,5.40
2023-03-24T03:03:26.516Z,4.73
2023-03-24T03:05:57.968Z,4.30
2023-03-24T03:08:27.230Z,4.90
2023-03-24T03:10:54.480Z,4.63
2023-03-24T03:13:44.022Z,4.73
2023-03-24T03:16:15.823Z,4.97
2023-03-24T03:18:53.084Z,5.33
2023-03-24T03:21:23.242Z,5.23
2023-03-24T03:23:53.876Z,5.17
2023-03-24T03:26:23.407Z,6.17
2023-03-24T03:28:57.412Z,5.50
2023-03-24T03:31:29.116Z,5.90
2023-03-24T03:34:02.776Z,6.00
2023-03-24T03:36:32.755Z,5.43
2023-03-24T03:39:23.380Z,5.23
2023-03-24T03:41:49.521Z,5.73
2023-03-24T03:44:15.733Z,4.20
2023-03-24T03:46:42.362Z,5.23
2023-03-24T03:49:08.574Z,5.53
2023-03-24T03:51:35.185Z,5.63
2023-03-24T03:54:06.206Z,4.80
2023-03-24T03:56:34.760Z,5.40
2023-03-24T03:59:03.391Z,4.90
2023-03-24T04:01:33.598Z,5.40
2023-03-24T04:04:11.092Z,5.20
2023-03-24T04:06:37.197Z,4.97
2023-03-24T04:09:19.661Z,4.60
2023-03-24T04:11:50.711Z,5.17
2023-03-24T04:14:46.334Z,5.20
2023-03-24T04:17:45.988Z,3.93
2023-03-24T04:20:17.018Z,4.53
2023-03-24T04:22:46.143Z,5.40
2023-03-24T04:25:44.389Z,4.90
2023-03-24T04:28:21.309Z,4.70
2023-03-24T04:31:00.591Z,4.67
2023-03-24T04:33:49.756Z,5.10
2023-03-24T04:36:22.822Z,4.80
2023-03-24T04:38:54.186Z,5.00
2023-03-24T04:41:21.525Z,4.70
2023-03-24T04:43:48.136Z,4.37
2023-03-24T04:46:17.244Z,4.10
2023-03-24T04:48:47.402Z,4.10
2023-03-24T04:51:14.871Z,4.60
2023-03-24T04:53:40.970Z,4.40
2023-03-24T04:56:25.597Z,4.20
2023-03-24T04:58:51.699Z,4.10
2023-03-24T05:01:20.638Z,4.23
2023-03-24T05:03:47.794Z,4.13
2023-03-24T05:06:14.156Z,3.77
2023-03-24T05:08:40.677Z,4.20
2023-03-24T05:11:06.904Z,3.80
2023-03-24T05:13:32.975Z,4.30
2023-03-24T05:15:59.180Z,3.87
2023-03-24T05:18:25.437Z,3.80
2023-03-24T05:20:53.000Z,4.30
2023-03-24T05:23:19.291Z,4.57
2023-03-24T05:25:46.635Z,4.43
2023-03-24T05:28:12.797Z,4.33
2023-03-24T05:30:38.920Z,3.57
2023-03-24T05:33:05.084Z,4.10
2023-03-24T05:35:31.191Z,4.50
2023-03-24T05:37:57.334Z,4.67
2023-03-24T05:40:23.412Z,4.30
2023-03-24T05:42:49.904Z,4.80
2023-03-24T05:45:16.364Z,4.97
2023-03-24T05:47:42.445Z,5.30
2023-03-24T05:50:09.065Z,4.60
2023-03-24T05:52:35.676Z,4.97
2023-03-24T05:55:02.062Z,5.80
2023-03-24T05:57:30.707Z,5.17
2023-03-24T05:59:57.275Z,5.43
2023-03-24T06:02:24.617Z,5.30
2023-03-24T06:04:51.167Z,6.13
2023-03-24T06:07:17.620Z,6.10
2023-03-24T06:09:46.101Z,5.80
2023-03-24T06:12:13.054Z,6.33
2023-03-24T06:14:39.892Z,6.10
2023-03-24T06:17:07.179Z,5.33
2023-03-24T06:19:34.108Z,5.60
2023-03-24T06:22:02.242Z,5.73
2023-03-24T06:24:29.369Z,5.60
2023-03-24T06:26:58.421Z,6.47
2023-03-24T06:29:24.509Z,5.80
2023-03-24T06:31:50.945Z,6.10
2023-03-24T06:34:17.120Z,6.00
2023-03-24T06:36:43.883Z,6.40
2023-03-24T06:39:10.004Z,5.90
2023-03-24T06:41:36.093Z,5.80
2023-03-24T06:44:03.004Z,5.97
2023-03-24T06:46:29.115Z,5.30
2023-03-24T06:48:55.663Z,5.97
2023-03-24T06:51:21.823Z,6.20
2023-03-24T06:53:47.891Z,6.03
2023-03-24T06:56:17.569Z,5.60
2023-03-24T06:58:44.308Z,5.43
2023-03-24T07:01:10.770Z,5.57
2023-03-24T07:03:37.944Z,5.73
2023-03-24T07:06:06.929Z,5.53
2023-03-24T07:08:38.164Z,6.60
2023-03-24T07:11:06.819Z,6.90
2023-03-24T07:13:32.992Z,7.00
2023-03-24T07:15:59.198Z,6.50
2023-03-24T07:18:25.639Z,7.53
2023-03-24T07:20:51.785Z,7.17
2023-03-24T07:23:17.943Z,6.83
2023-03-24T07:25:45.231Z,5.20
2023-03-24T07:28:11.344Z,4.17
2023-03-24T07:30:40.569Z,4.23
2023-03-24T07:33:10.094Z,4.70
2023-03-24T07:35:36.361Z,4.40
2023-03-24T07:38:02.490Z,4.70
2023-03-24T07:40:29.595Z,4.10
2023-03-24T07:42:59.846Z,4.40
2023-03-24T07:45:27.666Z,3.40
2023-03-24T07:47:54.005Z,3.57
2023-03-24T07:50:20.199Z,3.00
2023-03-24T07:52:47.960Z,2.23
2023-03-24T07:55:15.442Z,2.53
2023-03-24T07:57:42.601Z,1.70
2023-03-24T08:00:17.386Z,1.40
2023-03-24T08:02:45.354Z,1.80
2023-03-24T08:05:13.789Z,1.80
2023-03-24T08:07:44.041Z,1.50
2023-03-24T08:10:13.056Z,1.30
2023-03-24T08:12:39.568Z,1.30
2023-03-24T08:15:07.002Z,1.00
2023-03-24T08:17:33.575Z,1.40
2023-03-24T08:20:02.026Z,1.10
2023-03-24T08:22:29.651Z,0.83
2023-03-24T08:24:55.800Z,1.10
2023-03-24T08:27:22.014Z,2.23
2023-03-24T08:29:48.164Z,1.00
2023-03-24T08:32:15.312Z,1.10
2023-03-24T08:34:41.436Z,0.90
2023-03-24T08:37:12.344Z,1.20
2023-03-24T08:39:42.917Z,0.90
2023-03-24T08:42:08.982Z,1.23
2023-03-24T08:44:35.117Z,0.80
2023-03-24T08:47:06.012Z,1.00
2023-03-24T08:49:34.758Z,1.00
2023-03-24T08:52:01.117Z,0.70
2023-03-24T08:54:27.235Z,1.00
2023-03-24T08:56:58.267Z,0.97
2023-03-24T08:59:24.523Z,0.90
2023-03-24T09:01:51.199Z,1.13
2023-03-24T09:04:17.322Z,1.20
2023-03-24T09:06:49.618Z,0.83
2023-03-24T09:09:19.654Z,1.20
2023-03-24T09:11:49.824Z,0.80
2023-03-24T09:14:21.932Z,1.10
2023-03-24T09:16:51.856Z,1.03
2023-03-24T09:19:20.677Z,1.23
2023-03-24T09:21:50.391Z,1.10
2023-03-24T09:24:24.116Z,1.40
2023-03-24T09:26:54.815Z,0.93
2023-03-24T09:29:24.844Z,0.90
2023-03-24T09:31:56.310Z,1.00
2023-03-24T09:34:25.166Z,1.23
2023-03-24T09:36:55.625Z,1.13
2023-03-24T09:39:27.182Z,0.97
2023-03-24T09:42:08.336Z,0.90
2023-03-24T09:44:40.499Z,1.00
2023-03-24T09:47:18.782Z,0.97
2023-03-24T09:49:51.895Z,0.87
2023-03-24T09:52:26.305Z,0.90
2023-03-24T09:55:01.884Z,0.90
2023-03-24T09:57:36.671Z,0.80
2023-03-24T10:00:18.826Z,0.80
2023-03-24T10:02:45.412Z,0.70
2023-03-24T10:05:24.445Z,0.90
2023-03-24T10:07:59.312Z,0.77
2023-03-24T10:10:47.086Z,0.97
2023-03-24T10:13:48.691Z,1.20
2023-03-24T10:16:31.743Z,0.87
2023-03-24T10:19:13.187Z,1.17
2023-03-24T10:21:55.901Z,1.30
2023-03-24T10:24:49.302Z,1.27
2023-03-24T10:27:23.973Z,1.67
2023-03-24T10:30:02.998Z,1.63
2023-03-24T10:32:32.184Z,1.60
2023-03-24T10:35:09.129Z,1.50
2023-03-24T10:37:37.678Z,1.50
2023-03-24T10:40:13.021Z,1.53
2023-03-24T10:42:46.150Z,1.67
2023-03-24T10:45:25.488Z,1.70
2023-03-24T10:47:53.210Z,1.23
2023-03-24T10:50:29.632Z,1.60
2023-03-24T10:53:08.265Z,1.50
2023-03-24T10:55:43.504Z,1.70
2023-03-24T10:58:25.066Z,1.20
2023-03-24T11:00:58.260Z,1.90
2023-03-24T11:03:31.402Z,1.80
2023-03-24T11:06:03.944Z,1.90
2023-03-24T11:08:38.025Z,1.50
2023-03-24T11:11:30.579Z,1.70
2023-03-24T11:14:02.517Z,1.70
2023-03-24T11:16:43.249Z,1.80
2023-03-24T11:19:22.873Z,1.50
2023-03-24T11:22:00.813Z,1.83
2023-03-24T11:24:27.285Z,2.10
2023-03-24T11:27:02.537Z,2.33
2023-03-24T11:29:31.052Z,1.40
2023-03-24T11:32:13.246Z,1.70
2023-03-24T11:34:48.159Z,1.80
2023-03-24T11:37:18.587Z,2.00
2023-03-24T11:40:16.891Z,1.47
2023-03-24T11:42:57.402Z,1.63
2023-03-24T11:45:38.829Z,1.93
2023-03-24T11:48:25.778Z,2.17
2023-03-24T11:50:56.930Z,2.00
2023-03-24T11:53:34.292Z,1.97
2023-03-24T11:56:05.031Z,2.00
2023-03-24T11:58:49.016Z,1.50
2023-03-24T12:01:27.257Z,1.67
2023-03-24T12:04:39.372Z,2.10
2023-03-24T12:07:32.239Z,1.90
2023-03-24T12:10:20.832Z,1.70
2023-03-24T12:13:16.057Z,2.20
2023-03-24T12:16:20.761Z,1.77
2023-03-24T12:19:01.032Z,1.87
2023-03-24T12:21:50.366Z,1.70
2023-03-24T12:24:24.956Z,1.57
2023-03-24T12:26:59.061Z,1.53
2023-03-24T12:29:46.938Z,2.00
2023-03-24T12:32:24.473Z,1.70
2023-03-24T12:34:59.005Z,1.83
2023-03-24T12:37:48.866Z,1.87
2023-03-24T12:41:00.638Z,1.60
2023-03-24T12:43:55.384Z,2.30
2023-03-24T12:46:58.934Z,1.63
2023-03-24T12:49:57.964Z,1.93
2023-03-24T12:52:49.076Z,1.60
2023-03-24T12:55:24.633Z,2.20
2023-03-24T12:58:10.756Z,1.87
2023-03-24T13:01:19.902Z,1.80
2023-03-24T13:04:15.998Z,2.03
2023-03-24T13:06:59.764Z,2.10
2023-03-24T13:10:06.026Z,3.00
2023-03-24T13:12:54.656Z,2.60
2023-03-24T13:15:22.343Z,2.20
2023-03-24T13:18:16.772Z,2.20
2023-03-24T13:20:54.991Z,1.70
2023-03-24T13:23:54.143Z,1.87
2023-03-24T13:26:42.131Z,2.00
2023-03-24T13:29:13.572Z,2.00
2023-03-24T13:31:56.512Z,1.90
2023-03-24T13:34:34.199Z,1.83
2023-03-24T13:37:05.047Z,1.90
2023-03-24T13:39:35.421Z,2.17
2023-03-24T13:42:05.548Z,1.60
2023-03-24T13:44:37.916Z,1.97
2023-03-24T13:47:15.979Z,2.17
2023-03-24T13:49:51.561Z,2.13
2023-03-24T13:52:26.681Z,1.63
2023-03-24T13:54:57.348Z,1.90
2023-03-24T13:57:27.422Z,1.30
2023-03-24T14:00:07.954Z,2.23
2023-03-24T14:02:49.175Z,1.80
2023-03-24T14:05:23.319Z,1.80
2023-03-24T14:07:50.926Z,1.60
2023-03-24T14:10:18.356Z,1.07
2023-03-24T14:12:58.494Z,1.37
2023-03-24T14:15:31.565Z,1.50
2023-03-24T14:18:39.462Z,1.33
2023-03-24T14:21:10.701Z,1.60
2023-03-24T14:23:48.596Z,1.50
2023-03-24T14:26:19.307Z,1.37
2023-03-24T14:28:51.816Z,1.43
2023-03-24T14:31:30.136Z,1.60
2023-03-24T14:34:10.109Z,1.27
2023-03-24T14:36:43.426Z,1.20
2023-03-24T14:39:26.461Z,1.30
2023-03-24T14:41:59.303Z,1.30
2023-03-24T14:44:52.861Z,1.03
2023-03-24T14:47:29.894Z,1.13
2023-03-24T14:49:56.940Z,1.10
2023-03-24T14:52:32.285Z,1.40
2023-03-24T14:55:05.744Z,1.20
2023-03-24T14:57:38.806Z,1.23
2023-03-24T15:00:31.842Z,1.37
2023-03-24T15:03:00.642Z,1.13
2023-03-24T15:05:35.524Z,1.13
2023-03-24T15:08:21.836Z,0.93
2023-03-24T15:10:58.020Z,2.37
2023-03-24T15:13:48.136Z,0.90
2023-03-24T15:16:31.017Z,1.20
2023-03-24T15:19:07.731Z,1.17
2023-03-24T15:21:39.139Z,1.00
2023-03-24T15:24:22.189Z,1.30
2023-03-24T15:27:13.338Z,1.70
2023-03-24T15:29:46.286Z,0.97
2023-03-24T15:32:20.077Z,1.30
2023-03-24T15:34:59.035Z,1.30
2023-03-24T15:37:41.336Z,2.53
2023-03-24T15:40:30.915Z,1.80
2023-03-24T15:43:04.551Z,1.20
2023-03-24T15:45:43.815Z,2.20
2023-03-24T15:48:19.236Z,1.80
2023-03-24T15:51:01.318Z,1.33
2023-03-24T15:53:32.786Z,2.07
2023-03-24T15:56:30.875Z,1.57
2023-03-24T15:59:05.114Z,1.20
2023-03-24T16:01:38.678Z,1.47
2023-03-24T16:04:15.349Z,1.20
2023-03-24T16:06:53.579Z,1.53
2023-03-24T16:09:36.420Z,1.20
2023-03-24T16:12:10.032Z,1.70
2023-03-24T16:14:49.775Z,1.50
2023-03-24T16:17:19.765Z,1.30
2023-03-24T16:19:49.765Z,1.43
2023-03-24T16:22:22.108Z,1.43
2023-03-24T16:24:52.721Z,1.60
2023-03-24T16:27:22.542Z,1.13
2023-03-24T16:29:53.749Z,1.60
2023-03-24T16:32:24.044Z,0.87
2023-03-24T16:34:53.421Z,1.20
2023-03-24T16:37:23.368Z,1.17
2023-03-24T16:39:53.986Z,1.07
2023-03-24T16:42:23.981Z,1.50
2023-03-24T16:44:54.218Z,1.30
2023-03-24T16:47:24.161Z,1.40
2023-03-24T16:49:57.802Z,1.23
2023-03-24T16:52:27.623Z,1.53
2023-03-24T16:54:57.708Z,1.20
2023-03-24T16:57:27.541Z,0.97
2023-03-24T17:00:00.414Z,1.20
2023-03-24T17:02:28.160Z,2.23
2023-03-24T17:04:58.273Z,1.50
2023-03-24T17:07:31.074Z,2.00
2023-03-24T17:10:01.418Z,1.07
2023-03-24T17:12:31.792Z,1.20
2023-03-24T17:15:02.041Z,0.80
2023-03-24T17:17:32.298Z,1.30
2023-03-24T17:20:05.208Z,1.47
2023-03-24T17:22:32.505Z,1.50
2023-03-24T17:25:05.053Z,1.10
2023-03-24T17:27:35.518Z,1.47
2023-03-24T17:30:06.557Z,0.93
2023-03-24T17:32:35.591Z,1.13
2023-03-24T17:35:06.329Z,1.30
2023-03-24T17:37:36.097Z,1.53
2023-03-24T17:40:08.891Z,0.87
2023-03-24T17:42:35.992Z,1.30
2023-03-24T17:45:03.197Z,1.33
2023-03-24T17:47:29.733Z,1.27
2023-03-24T17:49:55.955Z,1.10
2023-03-24T17:52:22.404Z,0.70
2023-03-24T17:54:48.489Z,0.80
2023-03-24T17:57:14.832Z,0.93
2023-03-24T17:59:40.938Z,1.03
2023-03-24T18:02:09.181Z,0.90
2023-03-24T18:04:35.442Z,0.80
2023-03-24T18:07:02.108Z,0.80
2023-03-24T18:09:31.240Z,0.80
2023-03-24T18:11:57.847Z,0.60
2023-03-24T18:14:24.196Z,0.77
2023-03-24T18:16:50.320Z,0.70
2023-03-24T18:19:16.600Z,0.80
2023-03-24T18:21:43.687Z,0.70
2023-03-24T18:24:09.993Z,0.70
2023-03-24T18:26:36.098Z,0.80
2023-03-24T18:29:02.914Z,1.20
2023-03-24T18:31:31.697Z,1.03
2023-03-24T18:33:58.182Z,0.70
2023-03-24T18:36:28.439Z,0.87
2023-03-24T18:39:00.196Z,0.67
2023-03-24T18:41:27.914Z,0.70
2023-03-24T18:43:54.564Z,0.83
2023-03-24T18:46:21.261Z,0.50
2023-03-24T18:48:47.459Z,5.27
2023-03-24T18:51:14.609Z,1.40
2023-03-24T18:53:40.861Z,1.00
2023-03-24T18:56:07.796Z,0.90
2023-03-24T18:58:34.885Z,0.50
2023-03-24T19:01:08.254Z,0.70
2023-03-24T19:03:34.976Z,0.50
2023-03-24T19:06:05.480Z,0.50
2023-03-24T19:08:32.767Z,0.40
2023-03-24T19:10:59.427Z,0.80
2023-03-24T19:13:25.717Z,0.60
2023-03-24T19:15:55.729Z,0.50
2023-03-24T19:18:22.771Z,0.57
2023-03-24T19:20:49.410Z,0.73
2023-03-24T19:23:15.472Z,0.60
2023-03-24T19:25:43.086Z,0.80
2023-03-24T19:28:09.213Z,0.70
2023-03-24T19:30:37.983Z,0.60
2023-03-24T19:33:04.166Z,0.43
2023-03-24T19:35:30.635Z,0.40
2023-03-24T19:37:57.849Z,0.40
2023-03-24T19:40:23.923Z,0.60
2023-03-24T19:42:50.377Z,0.40
2023-03-24T19:45:17.293Z,0.50
2023-03-24T19:47:45.158Z,0.53
2023-03-24T19:50:12.120Z,0.50
2023-03-24T19:52:38.605Z,0.40
2023-03-24T19:55:08.295Z,0.40
2023-03-24T19:57:35.028Z,0.50
2023-03-24T20:00:01.579Z,0.47
2023-03-24T20:02:27.968Z,0.40
2023-03-24T20:05:03.088Z,0.40
2023-03-24T20:07:34.593Z,0.40
2023-03-24T20:10:06.691Z,0.40
2023-03-24T20:12:42.138Z,0.50
2023-03-24T20:15:13.192Z,0.40
2023-03-24T20:17:43.872Z,0.50
2023-03-24T20:20:25.389Z,0.50
2023-03-24T20:22:54.996Z,0.50
2023-03-24T20:25:25.702Z,0.60
2023-03-24T20:27:56.989Z,0.70
2023-03-24T20:30:29.734Z,0.50
2023-03-24T20:32:58.746Z,0.60
2023-03-24T20:35:28.842Z,0.70
2023-03-24T20:38:02.321Z,0.60
2023-03-24T20:40:32.736Z,0.70
2023-03-24T20:43:03.169Z,0.70
2023-03-24T20:45:36.075Z,0.47
2023-03-24T20:48:07.387Z,0.50
2023-03-24T20:50:38.346Z,0.40
2023-03-24T20:53:09.098Z,0.50
2023-03-24T20:55:39.573Z,0.70
2023-03-24T20:58:09.846Z,0.50
2023-03-24T21:00:45.261Z,1.63
2023-03-24T21:03:18.710Z,0.90
2023-03-24T21:05:48.732Z,0.50
2023-03-24T21:08:18.363Z,0.97
2023-03-24T21:10:48.695Z,0.80
2023-03-24T21:13:21.653Z,0.67
2023-03-24T21:15:48.818Z,0.67
2023-03-24T21:18:19.064Z,0.80
2023-03-24T21:20:57.027Z,0.90
2023-03-24T21:23:23.923Z,0.60
2023-03-24T21:25:54.186Z,0.90
2023-03-24T21:28:30.118Z,1.03
2023-03-24T21:30:58.001Z,1.17
2023-03-24T21:33:27.698Z,1.10
2023-03-24T21:35:58.501Z,1.23
2023-03-24T21:38:29.717Z,1.40
2023-03-24T21:41:00.893Z,1.57
2023-03-24T21:43:29.782Z,1.30
2023-03-24T21:46:01.530Z,12.97
2023-03-24T21:48:32.137Z,1.70
2023-03-24T21:51:02.929Z,1.30
2023-03-24T21:53:31.307Z,1.30
2023-03-24T21:56:05.026Z,1.33
2023-03-24T21:58:34.485Z,1.53
2023-03-24T22:01:04.807Z,1.30
2023-03-24T22:03:36.435Z,1.30
2023-03-24T22:06:09.704Z,1.20
2023-03-24T22:08:37.861Z,1.57
2023-03-24T22:11:06.080Z,1.77
2023-03-24T22:13:39.888Z,1.10
2023-03-24T22:16:10.384Z,1.10
2023-03-24T22:18:40.718Z,1.40
2023-03-24T22:21:12.560Z,0.90
2023-03-24T22:23:43.198Z,1.30
2023-03-24T22:26:16.122Z,1.40
2023-03-24T22:28:43.349Z,1.50
2023-03-24T22:31:16.779Z,1.47
2023-03-24T22:33:47.255Z,1.13
2023-03-24T22:36:16.016Z,1.20
2023-03-24T22:38:46.108Z,1.07
2023-03-24T22:41:16.444Z,1.30
2023-03-24T22:43:46.165Z,1.03
2023-03-24T22:46:17.103Z,1.17
2023-03-24T22:48:52.424Z,1.17
2023-03-24T22:51:22.746Z,1.03
2023-03-24T22:53:52.578Z,0.70
2023-03-24T22:56:22.801Z,0.87
2023-03-24T22:58:53.052Z,0.80
2023-03-24T23:01:23.147Z,0.80
2023-03-24T23:03:52.938Z,0.90
2023-03-24T23:06:27.877Z,0.70
2023-03-24T23:08:58.760Z,0.60
2023-03-24T23:11:27.241Z,0.70
2023-03-24T23:14:03.901Z,0.80
2023-03-24T23:16:34.515Z,0.50
2023-03-24T23:19:01.424Z,0.60
2023-03-24T23:21:28.188Z,0.60
2023-03-24T23:23:59.921Z,0.80
2023-03-24T23:26:30.481Z,0.50
2023-03-24T23:29:00.651Z,0.50
2023-03-24T23:31:31.419Z,0.60
2023-03-24T23:34:03.746Z,0.50
2023-03-24T23:36:33.448Z,0.60
2023-03-24T23:39:01.943Z,0.47
2023-03-24T23:41:32.141Z,0.60
2023-03-24T23:44:02.067Z,0.60
2023-03-24T23:46:32.947Z,0.70
2023-03-24T23:49:02.553Z,0.57
2023-03-24T23:51:35.364Z,0.60
2023-03-24T23:54:05.607Z,0.50
2023-03-24T23:56:36.025Z,0.50
2023-03-24T23:59:07.084Z,0.60
